sensor_id;sensor_type;location;lat;lon;timestamp;pressure;altitude;pressure_sealevel;temperature;humidity
76321;BME280;65132;52.088;5.402;2023-02-28T00:00:32;103319.00;;;0.03;87.05
76321;BME280;65132;52.088;5.402;2023-02-28T00:02:59;103309.28;;;-0.03;86.26
76321;BME280;65132;52.088;5.402;2023-02-28T00:05:27;103304.88;;;-0.04;86.73
76321;BME280;65132;52.088;5.402;2023-02-28T00:07:54;103304.94;;;-0.11;87.63
76321;BME280;65132;52.088;5.402;2023-02-28T00:10:26;103304.84;;;-0.02;88.33
76321;BME280;65132;52.088;5.402;2023-02-28T00:12:55;103318.13;;;0.01;87.64
76321;BME280;65132;52.088;5.402;2023-02-28T00:15:22;103321.63;;;0.05;87.96
76321;BME280;65132;52.088;5.402;2023-02-28T00:17:49;103318.88;;;0.12;87.41
76321;BME280;65132;52.088;5.402;2023-02-28T00:20:16;103320.50;;;0.25;87.27
76321;BME280;65132;52.088;5.402;2023-02-28T00:22:46;103323.84;;;0.39;87.66
76321;BME280;65132;52.088;5.402;2023-02-28T00:25:15;103317.72;;;0.36;86.52
76321;BME280;65132;52.088;5.402;2023-02-28T00:27:42;103315.78;;;0.47;86.81
76321;BME280;65132;52.088;5.402;2023-02-28T00:30:12;103311.19;;;0.56;86.34
76321;BME280;65132;52.088;5.402;2023-02-28T00:32:38;103321.81;;;0.61;87.35
76321;BME280;65132;52.088;5.402;2023-02-28T00:35:06;103324.50;;;0.59;87.25
76321;BME280;65132;52.088;5.402;2023-02-28T00:37:32;103312.06;;;0.58;87.87
76321;BME280;65132;52.088;5.402;2023-02-28T00:39:59;103316.53;;;0.58;87.30
76321;BME280;65132;52.088;5.402;2023-02-28T00:42:26;103308.53;;;0.56;86.89
76321;BME280;65132;52.088;5.402;2023-02-28T00:44:52;103301.47;;;0.55;87.66
76321;BME280;65132;52.088;5.402;2023-02-28T00:47:19;103312.13;;;0.55;88.93
76321;BME280;65132;52.088;5.402;2023-02-28T00:49:45;103309.34;;;0.64;88.88
76321;BME280;65132;52.088;5.402;2023-02-28T00:52:12;103307.34;;;0.78;88.82
76321;BME280;65132;52.088;5.402;2023-02-28T00:54:38;103306.41;;;0.82;88.08
76321;BME280;65132;52.088;5.402;2023-02-28T00:57:04;103303.69;;;0.85;88.67
76321;BME280;65132;52.088;5.402;2023-02-28T00:59:31;103309.81;;;0.93;88.22
76321;BME280;65132;52.088;5.402;2023-02-28T01:01:57;103307.97;;;0.95;88.61
76321;BME280;65132;52.088;5.402;2023-02-28T01:04:24;103308.69;;;1.08;88.66
76321;BME280;65132;52.088;5.402;2023-02-28T01:06:50;103299.59;;;1.19;88.84
76321;BME280;65132;52.088;5.402;2023-02-28T01:09:17;103306.69;;;1.22;88.51
76321;BME280;65132;52.088;5.402;2023-02-28T01:11:43;103316.34;;;1.29;88.50
76321;BME280;65132;52.088;5.402;2023-02-28T01:14:13;103319.72;;;1.39;88.90
76321;BME280;65132;52.088;5.402;2023-02-28T01:16:40;103318.84;;;1.40;88.60
76321;BME280;65132;52.088;5.402;2023-02-28T01:19:06;103310.72;;;1.46;88.87
76321;BME280;65132;52.088;5.402;2023-02-28T01:21:33;103311.56;;;1.49;88.53
76321;BME280;65132;52.088;5.402;2023-02-28T01:23:59;103310.59;;;1.53;89.27
76321;BME280;65132;52.088;5.402;2023-02-28T01:26:26;103305.13;;;1.61;88.79
76321;BME280;65132;52.088;5.402;2023-02-28T01:28:53;103308.63;;;1.64;89.22
76321;BME280;65132;52.088;5.402;2023-02-28T01:31:22;103303.19;;;1.70;89.01
76321;BME280;65132;52.088;5.402;2023-02-28T01:33:49;103305.81;;;1.72;88.66
76321;BME280;65132;52.088;5.402;2023-02-28T01:36:19;103306.66;;;1.75;88.23
76321;BME280;65132;52.088;5.402;2023-02-28T01:38:47;103293.25;;;1.78;88.65
76321;BME280;65132;52.088;5.402;2023-02-28T01:41:18;103295.78;;;1.84;88.28
76321;BME280;65132;52.088;5.402;2023-02-28T01:46:12;103301.91;;;1.89;88.39
76321;BME280;65132;52.088;5.402;2023-02-28T01:48:42;103292.97;;;1.92;88.23
76321;BME280;65132;52.088;5.402;2023-02-28T01:51:24;103293.63;;;2.03;88.13
76321;BME280;65132;52.088;5.402;2023-02-28T01:53:57;103293.59;;;2.04;87.45
76321;BME280;65132;52.088;5.402;2023-02-28T01:56:28;103287.47;;;2.01;87.63
76321;BME280;65132;52.088;5.402;2023-02-28T01:58:55;103289.13;;;2.06;88.44
76321;BME280;65132;52.088;5.402;2023-02-28T02:01:24;103282.84;;;2.09;88.28
76321;BME280;65132;52.088;5.402;2023-02-28T02:04:01;103274.72;;;2.13;87.78
76321;BME280;65132;52.088;5.402;2023-02-28T02:06:31;103271.22;;;2.11;87.32
76321;BME280;65132;52.088;5.402;2023-02-28T02:09:00;103271.16;;;2.14;88.18
76321;BME280;65132;52.088;5.402;2023-02-28T02:11:26;103274.72;;;2.13;88.18
76321;BME280;65132;52.088;5.402;2023-02-28T02:30:42;103280.88;;;2.17;88.58
76321;BME280;65132;52.088;5.402;2023-02-28T02:33:28;103279.97;;;2.19;87.92
76321;BME280;65132;52.088;5.402;2023-02-28T02:36:09;103278.06;;;2.24;88.21
76321;BME280;65132;52.088;5.402;2023-02-28T02:41:36;103277.16;;;2.25;88.15
76321;BME280;65132;52.088;5.402;2023-02-28T02:44:22;103273.66;;;2.22;88.79
76321;BME280;65132;52.088;5.402;2023-02-28T02:46:53;103270.00;;;2.27;88.82
76321;BME280;65132;52.088;5.402;2023-02-28T02:49:25;103280.56;;;2.32;88.82
76321;BME280;65132;52.088;5.402;2023-02-28T02:51:54;103273.41;;;2.34;88.33
76321;BME280;65132;52.088;5.402;2023-02-28T02:54:32;103280.53;;;2.33;87.49
76321;BME280;65132;52.088;5.402;2023-02-28T02:57:05;103279.59;;;2.36;87.15
76321;BME280;65132;52.088;5.402;2023-02-28T02:59:35;103278.75;;;2.34;86.96
76321;BME280;65132;52.088;5.402;2023-02-28T03:02:06;103283.09;;;2.39;87.34
76321;BME280;65132;52.088;5.402;2023-02-28T03:04:36;103277.63;;;2.44;87.90
76321;BME280;65132;52.088;5.402;2023-02-28T03:07:04;103279.41;;;2.43;88.04
76321;BME280;65132;52.088;5.402;2023-02-28T03:09:33;103283.97;;;2.40;88.11
76321;BME280;65132;52.088;5.402;2023-02-28T03:11:59;103286.66;;;2.40;88.56
76321;BME280;65132;52.088;5.402;2023-02-28T03:14:48;103278.63;;;2.40;88.49
76321;BME280;65132;52.088;5.402;2023-02-28T03:20:19;103277.75;;;2.39;88.04
76321;BME280;65132;52.088;5.402;2023-02-28T03:23:00;103277.72;;;2.41;88.74
76321;BME280;65132;52.088;5.402;2023-02-28T03:25:39;103283.97;;;2.40;88.19
76321;BME280;65132;52.088;5.402;2023-02-28T03:28:17;103281.47;;;2.32;88.70
76321;BME280;65132;52.088;5.402;2023-02-28T03:33:16;103279.59;;;2.36;89.06
76321;BME280;65132;52.088;5.402;2023-02-28T03:35:51;103284.16;;;2.31;88.80
76321;BME280;65132;52.088;5.402;2023-02-28T03:38:28;103290.41;;;2.31;89.42
76321;BME280;65132;52.088;5.402;2023-02-28T03:41:26;103301.41;;;2.15;89.12
76321;BME280;65132;52.088;5.402;2023-02-28T03:43:58;103284.41;;;2.19;89.23
76321;BME280;65132;52.088;5.402;2023-02-28T03:46:30;103293.22;;;2.24;90.17
76321;BME280;65132;52.088;5.402;2023-02-28T03:49:06;103299.41;;;2.26;89.41
76321;BME280;65132;52.088;5.402;2023-02-28T03:51:35;103297.44;;;2.34;89.80
76321;BME280;65132;52.088;5.402;2023-02-28T03:54:08;103293.84;;;2.35;89.00
76321;BME280;65132;52.088;5.402;2023-02-28T03:56:50;103304.53;;;2.35;89.41
76321;BME280;65132;52.088;5.402;2023-02-28T03:59:22;103294.78;;;2.34;89.56
76321;BME280;65132;52.088;5.402;2023-02-28T04:01:52;103301.94;;;2.32;89.66
76321;BME280;65132;52.088;5.402;2023-02-28T04:04:18;103307.28;;;2.32;89.14
76321;BME280;65132;52.088;5.402;2023-02-28T04:06:49;103308.13;;;2.34;89.19
76321;BME280;65132;52.088;5.402;2023-02-28T04:09:17;103303.66;;;2.36;89.79
76321;BME280;65132;52.088;5.402;2023-02-28T04:11:45;103298.31;;;2.36;88.95
76321;BME280;65132;52.088;5.402;2023-02-28T04:14:15;103304.66;;;2.30;88.69
76321;BME280;65132;52.088;5.402;2023-02-28T04:16:42;103306.50;;;2.27;88.29
76321;BME280;65132;52.088;5.402;2023-02-28T04:19:10;103315.41;;;2.27;85.39
76321;BME280;65132;52.088;5.402;2023-02-28T04:21:42;103313.56;;;2.31;83.06
76321;BME280;65132;52.088;5.402;2023-02-28T04:24:10;103303.84;;;2.27;79.93
76321;BME280;65132;52.088;5.402;2023-02-28T04:26:37;103302.94;;;2.28;79.86
76321;BME280;65132;52.088;5.402;2023-02-28T04:29:05;103304.81;;;2.23;78.70
76321;BME280;65132;52.088;5.402;2023-02-28T04:31:31;103308.38;;;2.22;78.68
76321;BME280;65132;52.088;5.402;2023-02-28T04:33:59;103312.84;;;2.21;78.55
76321;BME280;65132;52.088;5.402;2023-02-28T04:36:25;103310.19;;;2.20;77.76
76321;BME280;65132;52.088;5.402;2023-02-28T04:38:52;103309.38;;;2.18;78.20
76321;BME280;65132;52.088;5.402;2023-02-28T04:41:19;103306.63;;;2.21;78.44
76321;BME280;65132;52.088;5.402;2023-02-28T04:43:45;103304.06;;;2.15;78.30
76321;BME280;65132;52.088;5.402;2023-02-28T04:46:13;103312.06;;;2.16;79.31
76321;BME280;65132;52.088;5.402;2023-02-28T04:48:39;103317.50;;;2.12;78.29
76321;BME280;65132;52.088;5.402;2023-02-28T04:51:08;103318.41;;;2.11;78.96
76321;BME280;65132;52.088;5.402;2023-02-28T04:53:37;103309.59;;;2.07;80.03
76321;BME280;65132;52.088;5.402;2023-02-28T04:56:04;103303.34;;;2.07;79.54
76321;BME280;65132;52.088;5.402;2023-02-28T04:58:31;103313.38;;;1.94;79.28
76321;BME280;65132;52.088;5.402;2023-02-28T05:01:04;103318.72;;;1.94;80.77
76321;BME280;65132;52.088;5.402;2023-02-28T05:03:30;103325.94;;;1.89;81.36
76321;BME280;65132;52.088;5.402;2023-02-28T05:05:57;103328.00;;;1.74;83.01
76321;BME280;65132;52.088;5.402;2023-02-28T05:08:23;103321.03;;;1.67;83.62
76321;BME280;65132;52.088;5.402;2023-02-28T05:10:50;103311.31;;;1.63;84.94
76321;BME280;65132;52.088;5.402;2023-02-28T05:13:16;103314.16;;;1.52;84.58
76321;BME280;65132;52.088;5.402;2023-02-28T05:15:42;103313.44;;;1.43;85.11
76321;BME280;65132;52.088;5.402;2023-02-28T05:18:09;103310.81;;;1.41;86.18
76321;BME280;65132;52.088;5.402;2023-02-28T05:20:35;103316.16;;;1.41;86.13
76321;BME280;65132;52.088;5.402;2023-02-28T05:23:02;103316.22;;;1.37;86.26
76321;BME280;65132;52.088;5.402;2023-02-28T05:25:28;103317.03;;;1.40;86.36
76321;BME280;65132;52.088;5.402;2023-02-28T05:27:56;103322.25;;;1.48;86.72
76321;BME280;65132;52.088;5.402;2023-02-28T05:30:22;103324.91;;;1.49;86.57
76321;BME280;65132;52.088;5.402;2023-02-28T05:32:51;103316.84;;;1.52;86.22
76321;BME280;65132;52.088;5.402;2023-02-28T05:35:19;103318.56;;;1.56;85.94
76321;BME280;65132;52.088;5.402;2023-02-28T05:37:45;103317.56;;;1.62;86.09
76321;BME280;65132;52.088;5.402;2023-02-28T05:40:12;103319.19;;;1.70;87.41
76321;BME280;65132;52.088;5.402;2023-02-28T05:42:38;103318.25;;;1.73;87.94
76321;BME280;65132;52.088;5.402;2023-02-28T05:45:05;103307.72;;;1.64;87.31
76321;BME280;65132;52.088;5.402;2023-02-28T05:47:32;103319.16;;;1.72;88.29
76321;BME280;65132;52.088;5.402;2023-02-28T05:49:59;103297.78;;;1.73;88.22
76321;BME280;65132;52.088;5.402;2023-02-28T05:52:25;103312.88;;;1.74;88.01
76321;BME280;65132;52.088;5.402;2023-02-28T05:54:53;103328.00;;;1.75;89.35
76321;BME280;65132;52.088;5.402;2023-02-28T05:57:19;103317.31;;;1.74;89.43
76321;BME280;65132;52.088;5.402;2023-02-28T05:59:50;103328.81;;;1.79;90.14
76321;BME280;65132;52.088;5.402;2023-02-28T06:02:17;103330.66;;;1.75;90.14
76321;BME280;65132;52.088;5.402;2023-02-28T06:04:44;103322.59;;;1.78;89.23
76321;BME280;65132;52.088;5.402;2023-02-28T06:07:11;103313.81;;;1.73;89.79
76321;BME280;65132;52.088;5.402;2023-02-28T06:09:37;103319.38;;;1.60;89.78
76321;BME280;65132;52.088;5.402;2023-02-28T06:12:06;103313.13;;;1.61;91.29
76321;BME280;65132;52.088;5.402;2023-02-28T06:14:33;103323.75;;;1.62;90.49
76321;BME280;65132;52.088;5.402;2023-02-28T06:17:03;103314.09;;;1.55;91.18
76321;BME280;65132;52.088;5.402;2023-02-28T06:19:30;103304.41;;;1.51;90.96
76321;BME280;65132;52.088;5.402;2023-02-28T06:21:56;103310.59;;;1.53;91.60
76321;BME280;65132;52.088;5.402;2023-02-28T06:24:25;103310.78;;;1.43;92.13
76321;BME280;65132;52.088;5.402;2023-02-28T06:26:51;103311.84;;;1.33;92.16
76321;BME280;65132;52.088;5.402;2023-02-28T06:29:18;103303.63;;;1.43;91.43
76321;BME280;65132;52.088;5.402;2023-02-28T06:31:45;103305.50;;;1.40;92.09
76321;BME280;65132;52.088;5.402;2023-02-28T06:34:13;103303.84;;;1.33;92.13
76321;BME280;65132;52.088;5.402;2023-02-28T06:36:41;103308.13;;;1.43;92.79
76321;BME280;65132;52.088;5.402;2023-02-28T06:39:08;103305.44;;;1.43;92.11
76321;BME280;65132;52.088;5.402;2023-02-28T06:41:35;103305.50;;;1.40;92.22
76321;BME280;65132;52.088;5.402;2023-02-28T06:44:19;103316.22;;;1.37;92.31
76321;BME280;65132;52.088;5.402;2023-02-28T06:46:47;103312.69;;;1.36;92.80
76321;BME280;65132;52.088;5.402;2023-02-28T06:49:14;103325.03;;;1.40;92.70
76321;BME280;65132;52.088;5.402;2023-02-28T06:51:42;103312.47;;;1.47;92.75
76321;BME280;65132;52.088;5.402;2023-02-28T06:54:09;103316.84;;;1.52;92.76
76321;BME280;65132;52.088;5.402;2023-02-28T06:56:36;103323.94;;;1.52;92.08
76321;BME280;65132;52.088;5.402;2023-02-28T06:59:03;103321.16;;;1.59;92.14
76321;BME280;65132;52.088;5.402;2023-02-28T07:01:31;103323.03;;;1.54;91.97
76321;BME280;65132;52.088;5.402;2023-02-28T07:03:58;103329.13;;;1.61;92.31
76321;BME280;65132;52.088;5.402;2023-02-28T07:06:26;103332.69;;;1.61;91.78
76321;BME280;65132;52.088;5.402;2023-02-28T07:08:53;103332.56;;;1.67;92.89
76321;BME280;65132;52.088;5.402;2023-02-28T07:11:26;103336.97;;;1.71;92.55
76321;BME280;65132;52.088;5.402;2023-02-28T07:13:54;103335.19;;;1.72;91.55
76321;BME280;65132;52.088;5.402;2023-02-28T07:16:22;103336.97;;;1.71;92.30
76321;BME280;65132;52.088;5.402;2023-02-28T07:18:48;103330.63;;;1.77;92.28
76321;BME280;65132;52.088;5.402;2023-02-28T07:21:15;103338.63;;;1.78;91.44
76321;BME280;65132;52.088;5.402;2023-02-28T07:23:41;103334.16;;;1.77;91.37
76321;BME280;65132;52.088;5.402;2023-02-28T07:26:13;103343.81;;;1.84;91.57
76321;BME280;65132;52.088;5.402;2023-02-28T07:28:41;103337.38;;;1.96;90.88
76321;BME280;65132;52.088;5.402;2023-02-28T07:31:08;103340.03;;;1.97;91.68
76321;BME280;65132;52.088;5.402;2023-02-28T07:33:36;103340.91;;;1.98;91.58
76321;BME280;65132;52.088;5.402;2023-02-28T07:36:04;103342.72;;;1.96;91.39
76321;BME280;65132;52.088;5.402;2023-02-28T07:38:33;103335.56;;;1.98;90.75
76321;BME280;65132;52.088;5.402;2023-02-28T07:41:00;103338.53;;;1.83;91.45
76321;BME280;65132;52.088;5.402;2023-02-28T07:43:26;103349.78;;;2.00;91.21
76321;BME280;65132;52.088;5.402;2023-02-28T07:45:53;103346.78;;;2.16;90.96
76321;BME280;65132;52.088;5.402;2023-02-28T07:48:19;103351.25;;;2.16;90.45
76321;BME280;65132;52.088;5.402;2023-02-28T07:50:54;103347.66;;;2.17;90.55
76321;BME280;65132;52.088;5.402;2023-02-28T07:53:20;103352.91;;;2.21;90.81
76321;BME280;65132;52.088;5.402;2023-02-28T07:55:48;103351.19;;;2.19;89.99
76321;BME280;65132;52.088;5.402;2023-02-28T07:58:14;103356.13;;;2.38;90.09
76321;BME280;65132;52.088;5.402;2023-02-28T08:00:41;103358.88;;;2.35;89.92
76321;BME280;65132;52.088;5.402;2023-02-28T08:03:11;103357.28;;;2.25;89.92
76321;BME280;65132;52.088;5.402;2023-02-28T08:05:39;103350.13;;;2.27;90.05
76321;BME280;65132;52.088;5.402;2023-02-28T08:08:07;103355.13;;;2.44;89.70
76321;BME280;65132;52.088;5.402;2023-02-28T08:10:33;103361.78;;;2.66;89.17
76321;BME280;65132;52.088;5.402;2023-02-28T08:13:00;103360.03;;;2.65;87.89
76321;BME280;65132;52.088;5.402;2023-02-28T08:15:27;103365.09;;;2.79;86.90
76321;BME280;65132;52.088;5.402;2023-02-28T08:17:53;103373.78;;;2.88;86.46
76321;BME280;65132;52.088;5.402;2023-02-28T08:20:20;103370.63;;;3.09;87.27
76321;BME280;65132;52.088;5.402;2023-02-28T08:22:46;103359.28;;;2.98;86.28
76321;BME280;65132;52.088;5.402;2023-02-28T08:25:13;103376.75;;;3.14;85.43
76321;BME280;65132;52.088;5.402;2023-02-28T08:27:40;103374.25;;;3.07;84.90
76321;BME280;65132;52.088;5.402;2023-02-28T08:30:07;103358.09;;;2.72;83.94
76321;BME280;65132;52.088;5.402;2023-02-28T08:32:35;103365.06;;;2.80;84.23
76321;BME280;65132;52.088;5.402;2023-02-28T08:35:02;103370.84;;;3.00;83.46
76321;BME280;65132;52.088;5.402;2023-02-28T08:37:30;103367.94;;;3.11;82.38
76321;BME280;65132;52.088;5.402;2023-02-28T08:39:56;103357.16;;;3.14;82.98
76321;BME280;65132;52.088;5.402;2023-02-28T08:42:23;103361.47;;;3.19;79.62
76321;BME280;65132;52.088;5.402;2023-02-28T08:44:50;103366.94;;;3.15;78.43
76321;BME280;65132;52.088;5.402;2023-02-28T08:47:16;103363.63;;;3.04;76.30
76321;BME280;65132;52.088;5.402;2023-02-28T08:49:43;103365.59;;;2.96;77.66
76321;BME280;65132;52.088;5.402;2023-02-28T08:52:10;103361.41;;;3.22;77.68
76321;BME280;65132;52.088;5.402;2023-02-28T08:54:37;103356.41;;;3.45;75.33
76321;BME280;65132;52.088;5.402;2023-02-28T08:57:03;103363.03;;;3.29;74.87
76321;BME280;65132;52.088;5.402;2023-02-28T08:59:30;103351.06;;;3.44;74.35
76321;BME280;65132;52.088;5.402;2023-02-28T09:01:56;103356.78;;;3.65;73.28
76321;BME280;65132;52.088;5.402;2023-02-28T09:04:22;103351.75;;;4.19;72.87
76321;BME280;65132;52.088;5.402;2023-02-28T09:06:50;103347.38;;;4.17;69.17
76321;BME280;65132;52.088;5.402;2023-02-28T09:09:17;103353.16;;;4.94;64.49
76321;BME280;65132;52.088;5.402;2023-02-28T09:11:43;103354.97;;;6.00;64.35
76321;BME280;65132;52.088;5.402;2023-02-28T09:14:10;103345.31;;;6.67;61.54
76321;BME280;65132;52.088;5.402;2023-02-28T09:16:36;103348.81;;;5.45;59.10
76321;BME280;65132;52.088;5.402;2023-02-28T09:19:03;103349.66;;;5.99;55.73
76321;BME280;65132;52.088;5.402;2023-02-28T09:21:30;103353.38;;;5.67;59.49
76321;BME280;65132;52.088;5.402;2023-02-28T09:23:57;103367.16;;;5.31;55.95
76321;BME280;65132;52.088;5.402;2023-02-28T09:26:25;103346.97;;;5.45;56.80
76321;BME280;65132;52.088;5.402;2023-02-28T09:29:00;103349.84;;;5.67;52.69
76321;BME280;65132;52.088;5.402;2023-02-28T09:31:28;103354.47;;;5.36;51.14
76321;BME280;65132;52.088;5.402;2023-02-28T09:33:58;103357.72;;;5.18;51.33
76321;BME280;65132;52.088;5.402;2023-02-28T09:36:26;103358.47;;;4.95;48.76
76321;BME280;65132;52.088;5.402;2023-02-28T09:39:09;103356.03;;;5.15;50.10
76321;BME280;65132;52.088;5.402;2023-02-28T09:41:41;103356.31;;;5.61;47.78
76321;BME280;65132;52.088;5.402;2023-02-28T09:44:14;103359.19;;;5.00;47.91
76321;BME280;65132;52.088;5.402;2023-02-28T09:46:47;103364.88;;;4.89;46.68
76321;BME280;65132;52.088;5.402;2023-02-28T09:49:17;103364.59;;;5.26;47.21
76321;BME280;65132;52.088;5.402;2023-02-28T09:52:02;103365.44;;;5.56;45.47
76321;BME280;65132;52.088;5.402;2023-02-28T09:54:31;103361.34;;;5.44;44.20
76321;BME280;65132;52.088;5.402;2023-02-28T09:57:07;103363.28;;;5.93;45.23
76321;BME280;65132;52.088;5.402;2023-02-28T10:04:54;103365.38;;;5.30;44.20
76321;BME280;65132;52.088;5.402;2023-02-28T10:10:23;103349.84;;;7.11;39.71
76321;BME280;65132;52.088;5.402;2023-02-28T10:12:53;103356.84;;;6.94;39.63
76321;BME280;65132;52.088;5.402;2023-02-28T10:15:21;103340.75;;;7.99;38.16
76321;BME280;65132;52.088;5.402;2023-02-28T10:17:53;103329.97;;;8.78;38.47
76321;BME280;65132;52.088;5.402;2023-02-28T10:20:38;103336.66;;;10.13;35.41
76321;BME280;65132;52.088;5.402;2023-02-28T10:23:35;103326.63;;;10.65;33.21
76321;BME280;65132;52.088;5.402;2023-02-28T10:26:12;103333.78;;;9.29;35.71
76321;BME280;65132;52.088;5.402;2023-02-28T10:28:40;103324.34;;;10.25;33.81
76321;BME280;65132;52.088;5.402;2023-02-28T10:31:11;103318.28;;;9.14;35.93
76321;BME280;65132;52.088;5.402;2023-02-28T10:33:43;103320.72;;;10.74;33.07
76321;BME280;65132;52.088;5.402;2023-02-28T10:36:14;103321.31;;;12.02;31.89
76321;BME280;65132;52.088;5.402;2023-02-28T10:38:42;103314.69;;;12.78;30.35
76321;BME280;65132;52.088;5.402;2023-02-28T10:43:41;103346.09;;;8.79;34.72
76321;BME280;65132;52.088;5.402;2023-02-28T10:48:38;103332.81;;;9.12;33.95
76321;BME280;65132;52.088;5.402;2023-02-28T10:51:08;103325.38;;;8.61;34.34
76321;BME280;65132;52.088;5.402;2023-02-28T10:53:37;103329.56;;;9.41;34.35
76321;BME280;65132;52.088;5.402;2023-02-28T10:56:25;103312.47;;;11.53;29.80
76321;BME280;65132;52.088;5.402;2023-02-28T11:01:44;103298.28;;;12.93;29.19
76321;BME280;65132;52.088;5.402;2023-02-28T11:07:23;103302.72;;;14.40;27.06
76321;BME280;65132;52.088;5.402;2023-02-28T11:09:57;103292.97;;;13.59;29.43
76321;BME280;65132;52.088;5.402;2023-02-28T11:12:33;103312.84;;;10.85;29.88
76321;BME280;65132;52.088;5.402;2023-02-28T11:15:18;103303.72;;;9.35;32.92
76321;BME280;65132;52.088;5.402;2023-02-28T11:17:57;103315.78;;;9.98;31.87
76321;BME280;65132;52.088;5.402;2023-02-28T11:20:25;103303.56;;;10.08;31.87
76321;BME280;65132;52.088;5.402;2023-02-28T11:22:53;103289.66;;;12.17;29.99
76321;BME280;65132;52.088;5.402;2023-02-28T11:27:57;103287.38;;;14.00;26.71
76321;BME280;65132;52.088;5.402;2023-02-28T11:30:31;103281.06;;;13.87;25.42
76321;BME280;65132;52.088;5.402;2023-02-28T11:33:18;103278.53;;;14.97;25.08
76321;BME280;65132;52.088;5.402;2023-02-28T11:35:48;103259.03;;;15.50;24.07
76321;BME280;65132;52.088;5.402;2023-02-28T11:38:15;103264.53;;;12.55;27.76
76321;BME280;65132;52.088;5.402;2023-02-28T11:48:43;103268.72;;;13.30;28.61
76321;BME280;65132;52.088;5.402;2023-02-28T11:51:21;103255.88;;;15.20;25.92
76321;BME280;65132;52.088;5.402;2023-02-28T11:54:24;103262.56;;;13.92;26.87
76321;BME280;65132;52.088;5.402;2023-02-28T11:57:00;103265.19;;;13.54;27.29
76321;BME280;65132;52.088;5.402;2023-02-28T12:10:42;103248.34;;;16.27;23.91
76321;BME280;65132;52.088;5.402;2023-02-28T12:16:27;103241.91;;;16.39;25.22
76321;BME280;65132;52.088;5.402;2023-02-28T12:19:16;103243.50;;;16.20;23.45
76321;BME280;65132;52.088;5.402;2023-02-28T12:22:05;103235.84;;;16.69;22.93
76321;BME280;65132;52.088;5.402;2023-02-28T12:25:15;103237.47;;;15.34;25.19
76321;BME280;65132;52.088;5.402;2023-02-28T12:27:46;103231.81;;;16.07;25.06
76321;BME280;65132;52.088;5.402;2023-02-28T12:30:26;103227.75;;;16.34;23.58
76321;BME280;65132;52.088;5.402;2023-02-28T12:33:03;103220.78;;;15.39;25.32
76321;BME280;65132;52.088;5.402;2023-02-28T12:35:43;103224.72;;;16.04;24.14
76321;BME280;65132;52.088;5.402;2023-02-28T12:40:54;103221.50;;;17.30;22.46
76321;BME280;65132;52.088;5.402;2023-02-28T12:43:28;103222.16;;;16.69;23.26
76321;BME280;65132;52.088;5.402;2023-02-28T12:46:18;103227.63;;;16.80;22.95
76321;BME280;65132;52.088;5.402;2023-02-28T12:48:56;103226.56;;;15.93;23.47
76321;BME280;65132;52.088;5.402;2023-02-28T12:51:24;103216.06;;;16.77;22.32
76321;BME280;65132;52.088;5.402;2023-02-28T12:59:52;103206.59;;;15.10;24.41
76321;BME280;65132;52.088;5.402;2023-02-28T13:02:43;103207.00;;;15.64;24.26
76321;BME280;65132;52.088;5.402;2023-02-28T13:05:41;103209.34;;;16.25;23.29
76321;BME280;65132;52.088;5.402;2023-02-28T13:11:04;103207.91;;;13.82;25.04
76321;BME280;65132;52.088;5.402;2023-02-28T13:13:38;103198.94;;;15.74;23.84
76321;BME280;65132;52.088;5.402;2023-02-28T13:16:07;103196.69;;;17.22;21.85
76321;BME280;65132;52.088;5.402;2023-02-28T13:18:44;103194.19;;;16.77;22.19
76321;BME280;65132;52.088;5.402;2023-02-28T13:21:26;103195.25;;;16.96;22.67
76321;BME280;65132;52.088;5.402;2023-02-28T13:24:02;103192.44;;;18.12;20.40
76321;BME280;65132;52.088;5.402;2023-02-28T13:34:28;103187.97;;;16.41;21.81
76321;BME280;65132;52.088;5.402;2023-02-28T13:40:37;103182.25;;;16.33;23.56
76321;BME280;65132;52.088;5.402;2023-02-28T13:47:41;103182.94;;;15.69;22.42
76321;BME280;65132;52.088;5.402;2023-02-28T14:01:27;103155.66;;;19.89;18.26
76321;BME280;65132;52.088;5.402;2023-02-28T14:06:53;103147.38;;;20.17;18.43
76321;BME280;65132;52.088;5.402;2023-02-28T14:09:29;103150.88;;;18.76;19.41
76321;BME280;65132;52.088;5.402;2023-02-28T14:11:57;103145.03;;;20.23;19.33
76321;BME280;65132;52.088;5.402;2023-02-28T14:17:07;103145.16;;;18.40;19.17
76321;BME280;65132;52.088;5.402;2023-02-28T14:19:36;103138.97;;;19.25;19.33
76321;BME280;65132;52.088;5.402;2023-02-28T14:25:20;103137.34;;;19.03;18.84
76321;BME280;65132;52.088;5.402;2023-02-28T14:27:58;103140.03;;;19.89;18.06
76321;BME280;65132;52.088;5.402;2023-02-28T14:36:20;103137.00;;;18.78;19.84
76321;BME280;65132;52.088;5.402;2023-02-28T14:38:55;103130.66;;;19.92;18.40
76321;BME280;65132;52.088;5.402;2023-02-28T14:41:45;103136.09;;;19.46;19.09
76321;BME280;65132;52.088;5.402;2023-02-28T14:44:23;103140.41;;;20.04;18.69
76321;BME280;65132;52.088;5.402;2023-02-28T14:47:14;103127.53;;;19.68;18.54
76321;BME280;65132;52.088;5.402;2023-02-28T14:49:44;103129.41;;;19.48;19.30
76321;BME280;65132;52.088;5.402;2023-02-28T14:52:19;103126.31;;;18.65;18.93
76321;BME280;65132;52.088;5.402;2023-02-28T14:54:51;103130.16;;;19.50;18.19
76321;BME280;65132;52.088;5.402;2023-02-28T14:57:24;103131.31;;;19.38;19.07
76321;BME280;65132;52.088;5.402;2023-02-28T15:03:36;103125.22;;;19.06;19.67
76321;BME280;65132;52.088;5.402;2023-02-28T15:06:22;103143.88;;;16.57;21.80
76321;BME280;65132;52.088;5.402;2023-02-28T15:09:16;103145.66;;;15.22;23.00
76321;BME280;65132;52.088;5.402;2023-02-28T15:11:46;103137.53;;;16.99;22.40
76321;BME280;65132;52.088;5.402;2023-02-28T15:14:17;103135.47;;;17.44;20.95
76321;BME280;65132;52.088;5.402;2023-02-28T15:16:48;103129.66;;;16.74;21.80
76321;BME280;65132;52.088;5.402;2023-02-28T15:19:24;103132.50;;;17.15;20.89
76321;BME280;65132;52.088;5.402;2023-02-28T15:21:57;103131.78;;;16.82;21.36
76321;BME280;65132;52.088;5.402;2023-02-28T15:24:37;103128.47;;;17.92;20.57